createdAt,value
2022-11-21T00:00:19.029Z,0.80
2022-11-21T00:03:06.085Z,0.60
2022-11-21T00:05:53.312Z,0.80
2022-11-21T00:08:40.269Z,1.00
2022-11-21T00:11:27.321Z,0.93
2022-11-21T00:14:14.289Z,0.80
2022-11-21T00:17:01.279Z,0.80
2022-11-21T00:19:48.245Z,0.80
2022-11-21T00:22:35.338Z,0.63
2022-11-21T00:25:22.724Z,0.70
2022-11-21T00:28:09.682Z,0.80
2022-11-21T00:30:56.644Z,0.60
2022-11-21T00:33:43.595Z,0.80
2022-11-21T00:36:30.559Z,0.60
2022-11-21T00:39:17.512Z,0.70
2022-11-21T00:42:04.545Z,0.70
2022-11-21T00:44:51.515Z,0.80
2022-11-21T00:47:38.720Z,0.60
2022-11-21T00:50:25.783Z,0.77
2022-11-21T00:53:12.900Z,0.60
2022-11-21T00:55:59.921Z,0.90
2022-11-21T00:58:46.909Z,0.83
2022-11-21T01:01:33.876Z,0.80
2022-11-21T01:04:21.130Z,0.80
2022-11-21T01:07:08.164Z,0.70
2022-11-21T01:09:55.167Z,0.57
2022-11-21T01:12:43.407Z,0.70
2022-11-21T01:15:30.361Z,0.80
2022-11-21T01:18:17.843Z,0.60
2022-11-21T01:21:14.105Z,0.60
2022-11-21T01:24:02.662Z,0.50
2022-11-21T01:26:50.998Z,0.60
2022-11-21T01:29:38.050Z,0.60
2022-11-21T01:32:26.383Z,0.60
2022-11-21T01:35:13.564Z,0.60
2022-11-21T01:38:00.544Z,0.60
2022-11-21T01:40:47.483Z,0.50
2022-11-21T01:43:35.021Z,0.53
2022-11-21T01:46:22.914Z,0.60
2022-11-21T01:49:16.713Z,0.57
2022-11-21T01:52:11.597Z,0.77
2022-11-21T01:55:07.019Z,0.70
2022-11-21T01:57:54.015Z,0.70
2022-11-21T02:00:45.332Z,0.60
2022-11-21T02:03:36.773Z,0.73
2022-11-21T02:06:25.485Z,0.60
2022-11-21T02:09:12.641Z,0.60
2022-11-21T02:12:05.275Z,0.30
2022-11-21T02:14:53.669Z,0.50
2022-11-21T02:17:40.671Z,0.50
2022-11-21T02:20:29.447Z,0.63
2022-11-21T02:23:19.311Z,0.50
2022-11-21T02:26:06.404Z,0.40
2022-11-21T02:28:54.203Z,0.50
2022-11-21T02:31:41.161Z,0.43
2022-11-21T02:34:28.373Z,0.40
2022-11-21T02:37:16.614Z,0.53
2022-11-21T02:40:12.620Z,0.60
2022-11-21T02:43:17.084Z,0.30
2022-11-21T02:46:04.057Z,0.30
2022-11-21T02:48:51.033Z,0.40
2022-11-21T02:51:38.155Z,0.43
2022-11-21T02:54:25.424Z,0.40
2022-11-21T02:57:12.600Z,0.40
2022-11-21T02:59:59.590Z,0.40
2022-11-21T03:02:47.077Z,0.50
2022-11-21T03:05:34.294Z,0.50
2022-11-21T03:08:21.296Z,0.40
2022-11-21T03:11:08.245Z,0.70
2022-11-21T03:13:55.183Z,0.60
2022-11-21T03:16:42.162Z,0.50
2022-11-21T03:19:29.535Z,0.57
2022-11-21T03:22:16.495Z,0.50
2022-11-21T03:25:03.726Z,0.40
2022-11-21T03:27:52.790Z,0.40
2022-11-21T03:30:39.716Z,0.40
2022-11-21T03:33:26.693Z,0.50
2022-11-21T03:36:13.625Z,0.40
2022-11-21T03:39:01.177Z,0.50
2022-11-21T03:41:48.179Z,0.57
2022-11-21T03:44:35.133Z,0.30
2022-11-21T03:47:22.734Z,0.50
2022-11-21T03:50:10.692Z,0.60
2022-11-21T03:52:57.652Z,0.50
2022-11-21T03:55:44.811Z,0.60
2022-11-21T03:58:31.778Z,0.50
2022-11-21T04:01:19.155Z,0.40
2022-11-21T04:04:06.154Z,0.40
2022-11-21T04:06:53.097Z,0.50
2022-11-21T04:09:40.044Z,0.50
2022-11-21T04:12:27.100Z,0.60
2022-11-21T04:15:14.269Z,0.50
2022-11-21T04:18:01.233Z,0.43
2022-11-21T04:20:48.346Z,0.70
2022-11-21T04:23:35.780Z,0.50
2022-11-21T04:26:22.792Z,0.50
2022-11-21T04:29:09.825Z,0.60
2022-11-21T04:31:56.801Z,0.70
2022-11-21T04:34:43.773Z,0.57
2022-11-21T04:37:30.763Z,0.47
2022-11-21T04:40:18.054Z,0.60
2022-11-21T04:43:05.185Z,0.57
2022-11-21T04:45:52.180Z,0.40
2022-11-21T04:48:39.146Z,0.40
2022-11-21T04:51:26.096Z,0.60
2022-11-21T04:54:13.189Z,0.60
2022-11-21T04:57:00.155Z,0.67
2022-11-21T04:59:47.172Z,0.60
2022-11-21T05:02:34.206Z,0.50
2022-11-21T05:05:21.228Z,0.60
2022-11-21T05:08:08.262Z,0.70
2022-11-21T05:11:13.552Z,0.50
2022-11-21T05:14:00.565Z,0.60
2022-11-21T05:16:47.560Z,0.50
2022-11-21T05:19:34.596Z,0.53
2022-11-21T05:22:21.785Z,0.50
2022-11-21T05:25:08.967Z,0.50
2022-11-21T05:27:56.705Z,0.53
2022-11-21T05:30:43.712Z,0.40
2022-11-21T05:33:30.709Z,0.40
2022-11-21T05:36:17.683Z,0.40
2022-11-21T05:39:04.738Z,0.30
2022-11-21T05:41:51.750Z,0.30
2022-11-21T05:44:38.712Z,0.40
2022-11-21T05:47:25.645Z,0.50
2022-11-21T05:50:12.686Z,0.33
2022-11-21T05:53:04.691Z,0.40
2022-11-21T05:55:51.661Z,0.30
2022-11-21T05:58:39.105Z,0.40
2022-11-21T06:01:44.672Z,0.40
2022-11-21T06:04:31.672Z,0.30
2022-11-21T06:07:18.688Z,0.43
2022-11-21T06:10:05.915Z,0.30
2022-11-21T06:12:52.886Z,0.40
2022-11-21T06:15:39.824Z,0.40
2022-11-21T06:18:28.022Z,0.30
2022-11-21T06:21:17.271Z,0.23
2022-11-21T06:24:05.623Z,0.57
2022-11-21T06:26:52.873Z,0.43
2022-11-21T06:29:39.982Z,0.40
2022-11-21T06:32:27.082Z,0.23
2022-11-21T06:35:14.236Z,0.30
2022-11-21T06:38:01.348Z,0.30
2022-11-21T06:40:48.414Z,0.20
2022-11-21T06:43:35.510Z,0.40
2022-11-21T06:46:22.642Z,0.40
2022-11-21T06:49:09.691Z,0.40
2022-11-21T06:51:56.664Z,0.40
2022-11-21T06:54:43.746Z,0.57
2022-11-21T06:57:32.705Z,0.43
2022-11-21T07:00:21.030Z,0.40
2022-11-21T07:03:08.124Z,0.50
2022-11-21T07:05:58.529Z,0.57
2022-11-21T07:08:45.581Z,0.43
2022-11-21T07:11:35.149Z,0.47
2022-11-21T07:14:22.226Z,0.50
2022-11-21T07:17:14.040Z,0.60
2022-11-21T07:20:01.045Z,0.50
2022-11-21T07:22:48.165Z,0.60
2022-11-21T07:25:36.914Z,0.60
2022-11-21T07:28:24.079Z,0.53
2022-11-21T07:31:13.826Z,0.70
2022-11-21T07:34:02.051Z,0.50
2022-11-21T07:36:49.997Z,0.60
2022-11-21T07:39:37.365Z,0.80
2022-11-21T07:42:24.309Z,0.73
2022-11-21T07:45:12.106Z,0.60
2022-11-21T07:48:03.571Z,0.50
2022-11-21T07:50:50.607Z,0.70
2022-11-21T07:53:37.616Z,0.87
2022-11-21T07:56:26.609Z,0.70
2022-11-21T07:59:13.718Z,0.70
2022-11-21T08:02:00.768Z,0.50
2022-11-21T08:04:47.937Z,0.60
2022-11-21T08:07:35.003Z,0.40
2022-11-21T08:10:22.083Z,0.43
2022-11-21T08:13:09.108Z,0.50
2022-11-21T08:15:56.040Z,0.70
2022-11-21T08:18:43.044Z,0.50
2022-11-21T08:21:31.367Z,0.50
2022-11-21T08:24:18.353Z,0.60
2022-11-21T08:27:05.315Z,0.50
2022-11-21T08:29:52.265Z,0.60
2022-11-21T08:32:39.556Z,3.40
2022-11-21T08:35:27.699Z,1.47
2022-11-21T08:38:14.952Z,0.70
2022-11-21T08:41:20.853Z,0.50
2022-11-21T08:44:13.654Z,0.50
2022-11-21T08:47:02.165Z,0.67
2022-11-21T08:49:49.413Z,0.70
2022-11-21T08:52:36.428Z,0.50
2022-11-21T08:55:23.533Z,0.80
2022-11-21T08:58:10.490Z,0.50
2022-11-21T09:00:59.369Z,0.50
2022-11-21T09:03:46.607Z,0.60
2022-11-21T09:06:34.379Z,0.50
2022-11-21T09:09:25.303Z,0.43
2022-11-21T09:12:13.172Z,0.60
2022-11-21T09:15:19.082Z,0.60
2022-11-21T09:18:08.199Z,2.83
2022-11-21T09:20:55.634Z,1.10
2022-11-21T09:23:43.360Z,0.90
2022-11-21T09:26:30.616Z,0.53
2022-11-21T09:29:17.691Z,0.50
2022-11-21T09:32:05.192Z,0.60
2022-11-21T09:34:52.443Z,0.80
2022-11-21T09:37:40.455Z,0.80
2022-11-21T09:40:30.737Z,1.20
2022-11-21T09:44:01.605Z,0.90
2022-11-21T09:46:53.919Z,0.70
2022-11-21T09:49:44.047Z,0.63
2022-11-21T09:52:38.040Z,0.90
2022-11-21T09:55:52.060Z,0.50
2022-11-21T09:58:47.116Z,0.80
2022-11-21T10:01:34.351Z,0.80
2022-11-21T10:04:21.994Z,0.57
2022-11-21T10:07:26.423Z,0.70
2022-11-21T10:10:22.933Z,0.80
2022-11-21T10:13:45.192Z,0.70
2022-11-21T10:16:56.516Z,0.60
2022-11-21T10:20:02.348Z,0.60
2022-11-21T10:23:02.891Z,0.70
2022-11-21T10:26:05.633Z,1.20
2022-11-21T10:29:00.663Z,0.63
2022-11-21T10:31:49.437Z,0.80
2022-11-21T10:34:38.377Z,1.00
2022-11-21T10:37:37.481Z,0.73
2022-11-21T10:40:42.083Z,0.73
2022-11-21T10:43:59.268Z,0.80
2022-11-21T10:47:00.640Z,0.93
2022-11-21T10:49:48.861Z,0.90
2022-11-21T10:53:25.081Z,0.87
2022-11-21T10:56:19.624Z,0.80
2022-11-21T10:59:23.435Z,0.80
2022-11-21T11:02:12.893Z,0.70
2022-11-21T11:05:28.391Z,0.80
2022-11-21T11:08:15.878Z,0.83
2022-11-21T11:11:08.095Z,0.80
2022-11-21T11:13:59.629Z,0.80
2022-11-21T11:16:47.101Z,0.90
2022-11-21T11:19:40.146Z,0.77
2022-11-21T11:22:29.733Z,0.90
2022-11-21T11:25:16.841Z,1.00
2022-11-21T11:28:09.076Z,0.73
2022-11-21T11:30:56.857Z,0.90
2022-11-21T11:33:52.435Z,0.93
2022-11-21T11:36:49.443Z,1.40
2022-11-21T11:39:43.301Z,1.00
2022-11-21T11:43:06.353Z,0.80
2022-11-21T11:46:30.254Z,0.90
2022-11-21T11:49:53.008Z,0.80
2022-11-21T11:52:47.047Z,1.70
2022-11-21T11:56:09.587Z,1.03
2022-11-21T11:59:07.176Z,0.80
2022-11-21T12:02:11.482Z,2.07
2022-11-21T12:05:06.944Z,1.40
2022-11-21T12:11:48.244Z,1.23
2022-11-21T12:15:14.812Z,0.73
2022-11-21T12:18:01.697Z,0.70
2022-11-21T12:21:15.187Z,0.70
2022-11-21T12:24:03.879Z,0.67
2022-11-21T12:27:07.309Z,0.87
2022-11-21T12:30:08.301Z,0.70
2022-11-21T12:33:09.697Z,0.60
2022-11-21T12:36:27.753Z,0.80
2022-11-21T12:39:33.600Z,0.60
2022-11-21T12:42:47.260Z,0.67
2022-11-21T12:45:42.633Z,0.60
2022-11-21T12:49:04.423Z,0.80
2022-11-21T12:52:21.809Z,0.70
2022-11-21T12:55:16.416Z,0.70
2022-11-21T12:58:03.303Z,0.70
2022-11-21T13:01:21.702Z,0.70
2022-11-21T13:04:17.181Z,0.70
2022-11-21T13:07:05.528Z,0.80
2022-11-21T13:09:55.489Z,0.80
2022-11-21T13:12:55.467Z,0.90
2022-11-21T13:16:10.568Z,0.90
2022-11-21T13:18:58.195Z,0.90
2022-11-21T13:21:48.138Z,0.80
2022-11-21T13:24:44.480Z,0.93
2022-11-21T13:27:41.578Z,0.90
2022-11-21T13:30:29.210Z,1.30
2022-11-21T13:33:34.481Z,1.50
2022-11-21T13:36:27.757Z,1.40
2022-11-21T13:39:18.042Z,1.20
2022-11-21T13:42:26.220Z,1.17
2022-11-21T13:45:45.607Z,0.93
2022-11-21T13:48:52.216Z,1.57
2022-11-21T13:51:53.543Z,1.60
2022-11-21T13:54:56.970Z,1.30
2022-11-21T13:58:22.786Z,1.20
2022-11-21T14:01:37.277Z,1.60
2022-11-21T14:05:08.487Z,1.10
2022-11-21T14:08:22.183Z,1.23
2022-11-21T14:11:35.221Z,1.10
2022-11-21T14:14:39.762Z,1.00
2022-11-21T14:17:47.334Z,0.57
2022-11-21T14:20:49.945Z,1.10
2022-11-21T14:23:44.258Z,1.00
2022-11-21T14:26:41.356Z,0.90
2022-11-21T14:29:39.593Z,1.30
2022-11-21T14:32:31.621Z,1.10
2022-11-21T14:35:22.645Z,1.30
2022-11-21T14:38:12.854Z,1.00
2022-11-21T14:41:21.550Z,0.70
2022-11-21T14:44:08.626Z,0.73
2022-11-21T14:47:19.850Z,0.60
2022-11-21T14:50:25.747Z,0.73
2022-11-21T14:53:12.917Z,0.57
2022-11-21T14:56:01.766Z,0.47
2022-11-21T14:58:50.483Z,0.57
2022-11-21T15:01:37.448Z,0.53
2022-11-21T15:04:28.715Z,0.70
2022-11-21T15:07:30.083Z,0.63
2022-11-21T15:10:29.054Z,0.83
2022-11-21T15:13:20.227Z,0.60
2022-11-21T15:16:07.561Z,0.80
2022-11-21T15:18:55.100Z,0.60
2022-11-21T15:21:46.524Z,0.70
2022-11-21T15:25:17.484Z,0.80
2022-11-21T15:28:04.393Z,0.50
2022-11-21T15:31:21.247Z,0.50
2022-11-21T15:37:18.080Z,0.57
2022-11-21T15:40:05.510Z,0.50
2022-11-21T15:42:52.524Z,0.50
2022-11-21T15:45:39.497Z,0.67
2022-11-21T15:48:26.768Z,0.63
2022-11-21T15:51:14.695Z,0.67
2022-11-21T15:54:02.144Z,1.37
2022-11-21T15:56:49.310Z,1.53
2022-11-21T15:59:36.291Z,1.20
2022-11-21T16:02:23.274Z,1.10
2022-11-21T16:05:15.060Z,1.20
2022-11-21T16:08:02.026Z,0.93
2022-11-21T16:10:49.065Z,0.87
2022-11-21T16:13:36.019Z,1.10
2022-11-21T16:16:25.221Z,0.80
2022-11-21T16:19:13.476Z,0.90
2022-11-21T16:22:00.421Z,0.97
2022-11-21T16:24:47.414Z,1.30
2022-11-21T16:27:34.347Z,0.97
2022-11-21T16:30:21.826Z,0.90
2022-11-21T16:33:09.036Z,1.10
2022-11-21T16:35:57.061Z,0.90
2022-11-21T16:38:44.382Z,1.00
2022-11-21T16:41:31.320Z,1.47
2022-11-21T16:44:18.358Z,1.27
2022-11-21T16:47:08.595Z,1.30
2022-11-21T16:49:55.786Z,1.30
2022-11-21T16:52:42.853Z,1.50
2022-11-21T16:55:30.583Z,1.63
2022-11-21T16:58:17.529Z,1.47
2022-11-21T17:01:13.266Z,1.43
2022-11-21T17:04:00.279Z,1.70
2022-11-21T17:06:48.905Z,1.20
2022-11-21T17:09:35.920Z,1.20
2022-11-21T17:12:23.382Z,1.20
2022-11-21T17:15:13.506Z,1.30
2022-11-21T17:18:01.428Z,1.10
2022-11-21T17:20:48.376Z,2.50
2022-11-21T17:23:37.220Z,3.60
2022-11-21T17:26:26.904Z,2.67
2022-11-21T17:29:13.873Z,1.90
2022-11-21T17:32:00.850Z,1.60
2022-11-21T17:34:47.801Z,1.73
2022-11-21T17:37:34.775Z,1.70
2022-11-21T17:40:21.728Z,1.30
2022-11-21T17:43:09.647Z,1.40
2022-11-21T17:45:58.956Z,1.40
2022-11-21T17:48:54.296Z,1.67
2022-11-21T17:51:42.500Z,1.90
2022-11-21T17:54:30.568Z,2.87
2022-11-21T17:57:18.414Z,3.50
2022-11-21T18:00:06.716Z,3.33
2022-11-21T18:02:56.908Z,2.50
2022-11-21T18:05:47.487Z,2.43
2022-11-21T18:08:41.026Z,2.50
2022-11-21T18:11:37.652Z,2.40
2022-11-21T18:14:26.947Z,2.10
2022-11-21T18:17:14.173Z,1.90
2022-11-21T18:20:01.404Z,2.17
2022-11-21T18:22:49.341Z,2.10
2022-11-21T18:25:37.551Z,2.23
2022-11-21T18:28:24.601Z,2.30
2022-11-21T18:31:14.275Z,2.20
2022-11-21T18:34:02.607Z,2.00
2022-11-21T18:36:49.619Z,2.00
2022-11-21T18:39:37.045Z,2.00
2022-11-21T18:42:24.013Z,1.80
2022-11-21T18:45:10.998Z,1.83
2022-11-21T18:47:57.936Z,1.60
2022-11-21T18:50:44.868Z,1.90
2022-11-21T18:53:32.411Z,1.90
2022-11-21T18:56:20.214Z,1.93
2022-11-21T18:59:07.793Z,1.77
2022-11-21T19:01:54.774Z,1.60
2022-11-21T19:04:41.763Z,1.60
2022-11-21T19:07:28.819Z,1.60
2022-11-21T19:10:41.253Z,1.40
2022-11-21T19:13:23.102Z,1.40
2022-11-21T19:16:16.136Z,1.60
2022-11-21T19:19:33.710Z,1.70
2022-11-21T19:22:20.057Z,1.40
2022-11-21T19:25:07.347Z,1.63
2022-11-21T19:27:54.292Z,1.53
2022-11-21T19:30:41.310Z,1.50
2022-11-21T19:33:32.010Z,1.53
2022-11-21T19:36:21.518Z,1.80
2022-11-21T19:39:08.966Z,1.70
2022-11-21T19:41:56.217Z,1.77
2022-11-21T19:44:43.176Z,1.90
2022-11-21T19:47:32.204Z,1.80
2022-11-21T19:50:19.161Z,1.60
2022-11-21T19:53:06.197Z,1.67
2022-11-21T19:55:53.531Z,1.47
2022-11-21T19:58:41.811Z,1.60
2022-11-21T20:01:31.171Z,1.60
2022-11-21T20:04:18.352Z,2.10
2022-11-21T20:07:07.889Z,1.60
2022-11-21T20:09:55.223Z,1.70
2022-11-21T20:12:42.489Z,1.67
2022-11-21T20:15:29.590Z,1.97
2022-11-21T20:18:16.713Z,1.80
2022-11-21T20:21:10.799Z,1.53
2022-11-21T20:23:58.652Z,1.70
2022-11-21T20:26:46.231Z,1.77
2022-11-21T20:29:33.188Z,2.00
2022-11-21T20:32:20.312Z,1.60
2022-11-21T20:35:07.586Z,1.70
2022-11-21T20:37:54.535Z,1.83
2022-11-21T20:40:44.083Z,1.50
2022-11-21T20:44:10.607Z,1.60
2022-11-21T20:46:42.269Z,1.60
2022-11-21T20:49:29.340Z,1.90
2022-11-21T20:53:49.510Z,1.50
2022-11-21T20:55:23.397Z,1.80
2022-11-21T20:58:10.356Z,1.70
2022-11-21T21:00:57.947Z,1.87
2022-11-21T21:03:45.036Z,1.70
2022-11-21T21:06:31.988Z,1.60
2022-11-21T21:09:19.059Z,1.50
2022-11-21T21:12:06.167Z,2.13
2022-11-21T21:14:53.643Z,1.90
2022-11-21T21:17:40.594Z,1.90
2022-11-21T21:20:27.778Z,1.97
2022-11-21T21:23:14.792Z,1.70
2022-11-21T21:26:14.687Z,1.90
2022-11-21T21:29:02.721Z,2.20
2022-11-21T21:31:52.388Z,1.80
2022-11-21T21:34:41.356Z,1.83
2022-11-21T21:37:28.461Z,2.07
2022-11-21T21:40:17.437Z,2.00
2022-11-21T21:43:04.421Z,1.70
2022-11-21T21:45:51.434Z,2.03
2022-11-21T21:48:39.732Z,1.80
2022-11-21T21:51:28.949Z,1.80
2022-11-21T21:54:18.116Z,1.87
2022-11-21T21:57:05.141Z,1.70
2022-11-21T21:59:52.097Z,2.00
2022-11-21T22:02:39.557Z,2.00
2022-11-21T22:05:26.618Z,2.40
2022-11-21T22:08:13.638Z,2.37
2022-11-21T22:11:11.532Z,1.80
2022-11-21T22:14:01.049Z,2.00
2022-11-21T22:16:48.039Z,1.60
2022-11-21T22:19:35.049Z,1.73
2022-11-21T22:22:22.037Z,1.70
2022-11-21T22:25:09.244Z,1.53
2022-11-21T22:27:56.574Z,1.50
2022-11-21T22:30:53.861Z,1.40
2022-11-21T22:33:42.641Z,1.40
2022-11-21T22:36:29.759Z,1.50
2022-11-21T22:39:17.343Z,1.40
2022-11-21T22:42:04.386Z,1.50
2022-11-21T22:44:51.516Z,1.63
2022-11-21T22:47:39.829Z,1.90
2022-11-21T22:50:29.711Z,1.50
2022-11-21T22:53:16.778Z,1.50
2022-11-21T22:56:06.773Z,1.57
2022-11-21T22:58:53.953Z,1.30
2022-11-21T23:01:41.105Z,1.50
2022-11-21T23:04:28.122Z,1.83
2022-11-21T23:07:15.518Z,1.70
2022-11-21T23:10:02.526Z,1.53
2022-11-21T23:12:49.509Z,1.43
2022-11-21T23:15:36.495Z,1.40
2022-11-21T23:18:23.536Z,1.70
2022-11-21T23:21:12.173Z,1.53
2022-11-21T23:23:59.150Z,1.60
2022-11-21T23:26:46.121Z,1.97
2022-11-21T23:29:33.068Z,1.60
2022-11-21T23:32:20.044Z,1.90
2022-11-21T23:35:07.286Z,1.70
2022-11-21T23:37:54.324Z,2.00
2022-11-21T23:40:41.476Z,1.50
2022-11-21T23:43:28.466Z,1.70
2022-11-21T23:46:15.453Z,1.60
2022-11-21T23:49:02.481Z,1.80
2022-11-21T23:51:49.428Z,1.80
2022-11-21T23:54:36.406Z,2.00
2022-11-21T23:57:23.963Z,1.77
